Terminal Aerodrome Forecast
Issued by NWS

Home | Current Version | Previous Version | Text Only | Print | Product List | Glossary On
Versions: 1 2 3 4 5 6 7 8 9 10 11 12
732
FTUS44 KTSA 190520
TAFRVS
TAF
KRVS 190520Z 1906/2006 19005KT P6SM SCT250
     FM191700 19013G20KT P6SM SCT250
     FM200000 18008KT P6SM SCT250=

USA.gov is the U.S. government's official web portal to all federal, state and local government web resources and services.